createdAt,value
2019-01-19T00:00:05.985Z,98624.01
2019-01-19T00:02:56.617Z,98626.19
2019-01-19T00:05:47.189Z,98623.64
2019-01-19T00:08:39.648Z,98630.87
2019-01-19T00:11:32.103Z,98625.75
2019-01-19T00:14:24.586Z,98634.30
2019-01-19T00:17:15.130Z,98630.92
2019-01-19T00:20:05.684Z,98622.86
2019-01-19T00:22:56.229Z,98619.97
2019-01-19T00:25:46.799Z,98621.70
2019-01-19T00:28:37.359Z,98617.92
2019-01-19T00:31:27.896Z,98614.13
2019-01-19T00:34:18.452Z,98614.58
2019-01-19T00:37:11.269Z,98614.98
2019-01-19T00:40:01.802Z,98618.40
2019-01-19T00:42:54.510Z,98612.48
2019-01-19T00:45:45.084Z,98616.30
2019-01-19T00:48:35.634Z,98610.77
2019-01-19T00:51:26.189Z,98612.88
2019-01-19T00:54:17.847Z,98607.77
2019-01-19T00:57:10.366Z,98607.75
2019-01-19T01:00:02.831Z,98603.94
2019-01-19T01:02:53.401Z,98610.35
2019-01-19T01:05:45.856Z,98606.95
2019-01-19T01:08:38.340Z,98608.33
2019-01-19T01:11:28.920Z,98607.12
2019-01-19T01:14:21.400Z,98604.63
2019-01-19T01:17:13.861Z,98601.63
2019-01-19T01:20:04.408Z,98602.48
2019-01-19T01:22:54.977Z,98600.81
2019-01-19T01:25:45.537Z,98602.09
2019-01-19T01:28:38.005Z,98605.48
2019-01-19T01:31:30.462Z,98604.65
2019-01-19T01:34:22.943Z,98604.27
2019-01-19T01:37:15.396Z,98603.42
2019-01-19T01:40:07.860Z,98607.28
2019-01-19T01:42:58.426Z,98600.09
2019-01-19T01:45:49.013Z,98592.46
2019-01-19T01:48:41.496Z,98597.13
2019-01-19T01:51:32.038Z,98580.16
2019-01-19T01:54:22.595Z,98590.33
2019-01-19T01:56:33.421Z,98592.05
2019-01-19T01:59:23.977Z,98590.37
2019-01-19T02:02:16.454Z,98593.36
2019-01-19T02:05:07.002Z,98593.79
2019-01-19T02:07:59.447Z,98590.83
2019-01-19T02:10:50.083Z,98594.61
2019-01-19T02:13:40.640Z,98589.09
2019-01-19T02:16:33.117Z,98573.87
2019-01-19T02:19:25.569Z,98583.57
2019-01-19T02:22:16.309Z,98583.16
2019-01-19T02:25:06.879Z,98586.55
2019-01-19T02:27:57.461Z,98586.55
2019-01-19T02:30:49.927Z,98588.23
2019-01-19T02:33:40.483Z,98583.98
2019-01-19T02:36:31.097Z,98583.14
2019-01-19T02:39:21.634Z,98580.12
2019-01-19T02:42:12.211Z,98578.03
2019-01-19T02:45:04.661Z,98577.17
2019-01-19T02:47:55.234Z,98572.11
2019-01-19T02:50:45.797Z,98574.23
2019-01-19T02:53:36.359Z,98577.67
2019-01-19T02:56:28.793Z,98569.67
2019-01-19T02:59:21.297Z,98570.11
2019-01-19T03:07:43.200Z,98565.02
2019-01-19T03:10:35.654Z,98557.38
2019-01-19T03:13:28.128Z,98561.59
2019-01-19T03:16:18.665Z,98564.16
2019-01-19T03:19:09.230Z,98559.93
2019-01-19T03:21:59.766Z,98558.24
2019-01-19T03:24:52.236Z,98556.98
2019-01-19T03:27:44.716Z,98561.23
2019-01-19T03:30:37.163Z,98556.58
2019-01-19T03:33:27.722Z,98554.03
2019-01-19T03:36:20.170Z,98554.45
2019-01-19T03:39:12.629Z,98557.42
2019-01-19T03:42:03.860Z,98555.73
2019-01-19T03:44:56.319Z,98555.70
2019-01-19T03:47:48.784Z,98556.98
2019-01-19T03:50:39.339Z,98551.89
2019-01-19T03:53:30.103Z,98551.91
2019-01-19T03:56:20.632Z,98551.05
2019-01-19T03:59:11.216Z,98549.78
2019-01-19T04:02:01.775Z,98547.66
2019-01-19T04:04:52.395Z,98550.20
2019-01-19T04:07:42.865Z,98547.67
2019-01-19T04:10:33.452Z,98538.34
2019-01-19T04:13:25.888Z,98542.16
2019-01-19T04:16:16.445Z,98542.16
2019-01-19T04:19:06.994Z,98542.59
2019-01-19T04:21:59.461Z,98542.16
2019-01-19T04:24:51.903Z,98535.83
2019-01-19T04:27:02.717Z,98532.03
2019-01-19T04:29:13.508Z,98534.12
2019-01-19T04:31:24.322Z,98537.95
2019-01-19T04:33:35.134Z,98532.44
2019-01-19T04:35:45.933Z,98532.02
2019-01-19T04:37:56.754Z,98529.48
2019-01-19T04:40:49.213Z,98534.09
2019-01-19T04:43:00.001Z,98526.06
2019-01-19T04:45:10.996Z,98526.05
2019-01-19T04:47:21.810Z,98528.60
2019-01-19T04:49:32.601Z,98529.04
2019-01-19T04:51:43.437Z,98526.06
2019-01-19T04:53:54.231Z,98526.89
2019-01-19T04:56:05.138Z,98523.50
2019-01-19T04:58:15.987Z,98528.98
2019-01-19T05:00:26.788Z,98526.02
2019-01-19T05:02:37.608Z,98515.86
2019-01-19T05:04:48.515Z,98518.77
2019-01-19T05:06:59.324Z,98516.66
2019-01-19T05:09:10.230Z,98514.98
2019-01-19T05:11:21.016Z,98509.49
2019-01-19T05:13:31.837Z,98510.32
2019-01-19T05:15:42.637Z,98509.48
2019-01-19T05:20:32.138Z,98496.38
2019-01-19T05:22:42.941Z,98496.38
2019-01-19T05:24:53.744Z,98500.21
2019-01-19T05:27:24.455Z,98499.36
2019-01-19T05:29:35.243Z,98499.36
2019-01-19T05:31:46.047Z,98496.83
2019-01-19T05:34:16.759Z,98486.69
2019-01-19T05:36:27.554Z,98486.69
2019-01-19T05:38:38.368Z,98494.73
2019-01-19T05:40:49.187Z,98490.50
2019-01-19T05:42:59.977Z,98494.30
2019-01-19T05:45:52.452Z,98492.20
2019-01-19T05:48:03.563Z,98493.03
2019-01-19T05:50:56.049Z,98489.23
2019-01-19T05:53:06.842Z,98495.14
2019-01-19T05:55:17.652Z,98498.91
2019-01-19T05:57:28.481Z,98496.36
2019-01-19T05:59:39.289Z,98494.23
2019-01-19T06:01:50.094Z,98494.66
2019-01-19T06:04:00.885Z,98495.94
2019-01-19T06:08:30.522Z,98488.34
2019-01-19T06:10:41.334Z,98487.48
2019-01-19T06:12:52.129Z,98489.61
2019-01-19T06:15:44.609Z,98484.13
2019-01-19T06:17:55.400Z,98480.30
2019-01-19T06:20:47.849Z,98480.70
2019-01-19T06:22:58.661Z,98478.63
2019-01-19T06:25:31.243Z,98478.19
2019-01-19T06:27:42.182Z,98480.73
2019-01-19T06:29:52.977Z,98476.08
2019-01-19T06:32:03.822Z,98477.36
2019-01-19T06:34:14.601Z,98479.45
2019-01-19T06:36:25.411Z,98480.72
2019-01-19T06:38:36.221Z,98481.97
2019-01-19T06:40:47.038Z,98481.56
2019-01-19T06:42:58.175Z,98479.03
2019-01-19T06:45:50.623Z,98482.84
2019-01-19T06:50:20.437Z,98478.62
2019-01-19T06:52:31.280Z,98476.94
2019-01-19T06:54:42.184Z,98478.63
2019-01-19T06:56:53.048Z,98484.55
2019-01-19T06:59:03.862Z,98481.59
2019-01-19T07:01:14.674Z,98482.03
2019-01-19T07:03:25.496Z,98482.01
2019-01-19T07:05:36.305Z,98484.12
2019-01-19T07:07:47.138Z,98484.13
2019-01-19T07:09:57.972Z,98490.05
2019-01-19T07:12:08.869Z,98481.99
2019-01-19T07:14:19.687Z,98480.72
2019-01-19T07:16:30.485Z,98485.78
2019-01-19T07:18:41.313Z,98484.90
2019-01-19T07:20:52.104Z,98481.52
2019-01-19T07:23:02.936Z,98483.63
2019-01-19T07:25:13.851Z,98488.28
2019-01-19T07:27:24.698Z,98477.83
2019-01-19T07:29:35.486Z,98479.94
2019-01-19T07:31:46.296Z,98481.65
2019-01-19T07:33:57.098Z,98484.20
2019-01-19T07:36:08.090Z,98488.00
2019-01-19T07:38:18.851Z,98483.75
2019-01-19T07:40:29.661Z,98489.66
2019-01-19T07:45:54.580Z,98482.03
2019-01-19T07:50:24.654Z,98486.66
2019-01-19T07:52:35.479Z,98491.75
2019-01-19T07:54:46.316Z,98488.77
2019-01-19T07:56:57.126Z,98492.60
2019-01-19T07:59:08.082Z,98493.02
2019-01-19T08:01:18.884Z,98495.16
2019-01-19T08:03:29.675Z,98498.55
2019-01-19T08:05:40.506Z,98497.70
2019-01-19T08:07:51.302Z,98497.27
2019-01-19T08:10:43.780Z,98497.72
2019-01-19T08:15:47.034Z,98497.73
2019-01-19T08:17:57.857Z,98500.67
2019-01-19T08:20:50.342Z,98493.08
2019-01-19T08:23:01.156Z,98492.64
2019-01-19T08:25:53.614Z,98492.66
2019-01-19T08:28:04.459Z,98493.48
2019-01-19T08:30:35.230Z,98489.19
2019-01-19T08:32:46.191Z,98486.08
2019-01-19T08:34:56.988Z,98488.38
2019-01-19T08:37:07.921Z,98483.55
2019-01-19T08:39:19.024Z,98490.67
2019-01-19T08:41:29.837Z,98483.41
2019-01-19T08:46:13.013Z,98480.88
2019-01-19T08:48:24.133Z,98481.91
2019-01-19T08:50:34.958Z,98485.50
2019-01-19T08:52:45.805Z,98482.16
2019-01-19T08:54:56.594Z,98480.41
2019-01-19T08:57:07.623Z,98479.73
2019-01-19T08:59:18.434Z,98474.56
2019-01-19T09:01:29.349Z,98474.14
2019-01-19T09:03:40.153Z,98475.13
2019-01-19T09:05:50.966Z,98478.55
2019-01-19T09:08:01.777Z,98475.56
2019-01-19T09:10:32.438Z,98476.66
2019-01-19T09:12:43.368Z,98475.06
2019-01-19T09:14:54.168Z,98476.06
2019-01-19T09:17:05.032Z,98470.67
2019-01-19T09:19:15.839Z,98472.47
2019-01-19T09:21:26.655Z,98471.78
2019-01-19T09:25:56.283Z,98472.41
2019-01-19T09:28:07.112Z,98469.87
2019-01-19T09:30:59.576Z,98472.77
2019-01-19T09:33:10.514Z,98468.63
2019-01-19T09:35:21.302Z,98470.34
2019-01-19T09:37:32.150Z,98469.59
2019-01-19T09:39:42.939Z,98468.08
2019-01-19T09:41:53.739Z,98468.92
2019-01-19T09:44:04.649Z,98465.53
2019-01-19T09:46:15.595Z,98468.80
2019-01-19T09:48:33.517Z,98473.83
2019-01-19T09:50:44.312Z,98472.62
2019-01-19T09:52:55.148Z,98472.33
2019-01-19T09:55:27.692Z,98468.00
2019-01-19T09:57:38.610Z,98465.65
2019-01-19T09:59:49.474Z,98466.33
2019-01-19T10:02:00.296Z,98468.16
2019-01-19T10:04:11.115Z,98465.46
2019-01-19T10:06:22.027Z,98474.09
2019-01-19T10:08:32.923Z,98472.75
2019-01-19T10:13:06.187Z,98471.27
2019-01-19T10:15:58.641Z,98469.69
2019-01-19T10:18:09.554Z,98472.25
2019-01-19T10:20:40.248Z,98468.89
2019-01-19T10:22:51.197Z,98462.84
2019-01-19T10:25:43.842Z,98460.77
2019-01-19T10:27:54.661Z,98460.80
2019-01-19T10:30:47.140Z,98451.43
2019-01-19T10:32:58.032Z,98459.92
2019-01-19T10:35:50.498Z,98452.27
2019-01-19T10:38:01.318Z,98457.81
2019-01-19T10:40:53.772Z,98454.14
2019-01-19T10:43:04.571Z,98454.73
2019-01-19T10:45:35.281Z,98450.93
2019-01-19T10:47:46.077Z,98444.97
2019-01-19T10:49:56.883Z,98444.34
2019-01-19T10:52:07.719Z,98449.51
2019-01-19T10:54:18.540Z,98442.33
2019-01-19T10:56:29.523Z,98437.90
2019-01-19T10:58:40.353Z,98442.06
2019-01-19T11:00:51.178Z,98444.15
2019-01-19T11:03:02.100Z,98434.38
2019-01-19T11:05:54.567Z,98440.19
2019-01-19T11:10:37.870Z,98432.96
2019-01-19T11:12:48.791Z,98428.77
2019-01-19T11:14:59.595Z,98428.92
2019-01-19T11:17:10.436Z,98422.67
2019-01-19T11:19:21.256Z,98416.56
2019-01-19T11:21:32.069Z,98421.23
2019-01-19T11:23:42.915Z,98412.94
2019-01-19T11:25:53.829Z,98417.69
2019-01-19T11:28:04.654Z,98410.94
2019-01-19T11:30:57.096Z,98402.55
2019-01-19T11:33:07.924Z,98395.02
2019-01-19T11:35:19.199Z,98400.12
2019-01-19T11:37:29.976Z,98391.14
2019-01-19T11:39:40.813Z,98393.34
2019-01-19T11:41:51.594Z,98381.41
2019-01-19T11:44:02.535Z,98381.85
2019-01-19T11:46:13.354Z,98382.36
2019-01-19T11:48:24.169Z,98377.81
2019-01-19T11:50:34.976Z,98384.66
2019-01-19T11:53:07.696Z,98380.87
2019-01-19T11:58:32.611Z,98380.44
2019-01-19T12:00:43.450Z,98383.56
2019-01-19T12:02:54.297Z,98381.45
2019-01-19T12:05:05.208Z,98381.92
2019-01-19T12:07:16.009Z,98371.34
2019-01-19T12:09:26.839Z,98373.97
2019-01-19T12:11:37.746Z,98373.90
2019-01-19T12:13:48.621Z,98371.02
2019-01-19T12:15:59.423Z,98366.75
2019-01-19T12:18:10.979Z,98366.72
2019-01-19T12:20:43.042Z,98363.80
2019-01-19T12:22:54.153Z,98354.77
2019-01-19T12:25:46.611Z,98352.25
2019-01-19T12:27:57.538Z,98348.56
2019-01-19T12:30:29.233Z,98349.84
2019-01-19T12:32:40.136Z,98350.95
2019-01-19T12:34:50.970Z,98352.30
2019-01-19T12:37:01.884Z,98345.84
2019-01-19T12:39:12.702Z,98341.77
2019-01-19T12:41:23.542Z,98345.81
2019-01-19T12:43:34.329Z,98343.30
2019-01-19T12:46:26.813Z,98336.95
2019-01-19T12:48:37.603Z,98335.34
2019-01-19T12:50:48.466Z,98343.59
2019-01-19T12:52:59.290Z,98343.97
2019-01-19T12:55:31.910Z,98346.05
2019-01-19T12:57:42.739Z,98342.16
2019-01-19T12:59:53.575Z,98335.81
2019-01-19T13:02:04.512Z,98333.30
2019-01-19T13:04:15.346Z,98339.47
2019-01-19T13:06:46.330Z,98334.90
2019-01-19T13:08:57.253Z,98334.90
2019-01-19T13:11:49.767Z,98325.82
2019-01-19T13:14:03.420Z,98330.02
2019-01-19T13:16:55.098Z,98333.84
2019-01-19T13:19:47.543Z,98325.75
2019-01-19T13:22:39.991Z,98318.94
2019-01-19T13:25:30.564Z,98312.53
2019-01-19T13:28:21.189Z,98309.52
2019-01-19T13:31:11.711Z,98305.59
2019-01-19T13:33:44.330Z,98307.00
2019-01-19T13:36:34.924Z,98303.98
2019-01-19T13:39:25.539Z,98305.66
2019-01-19T13:42:16.105Z,98305.22
2019-01-19T13:45:06.670Z,98292.94
2019-01-19T13:47:57.233Z,98298.84
2019-01-19T13:50:47.776Z,98298.01
2019-01-19T13:53:38.364Z,98295.02
2019-01-19T13:56:28.940Z,98290.28
2019-01-19T13:59:19.530Z,98296.80
2019-01-19T14:02:10.089Z,98292.51
2019-01-19T14:05:00.669Z,98283.91
2019-01-19T14:07:51.210Z,98283.91
2019-01-19T14:10:41.762Z,98282.16
2019-01-19T14:13:32.317Z,98272.77
2019-01-19T14:16:22.908Z,98276.01
2019-01-19T14:19:15.390Z,98277.14
2019-01-19T14:22:07.833Z,98276.70
2019-01-19T14:25:00.326Z,98276.34
2019-01-19T14:27:52.756Z,98270.03
2019-01-19T14:30:43.342Z,98271.67
2019-01-19T14:33:35.776Z,98274.80
2019-01-19T14:36:26.464Z,98270.61
2019-01-19T14:39:17.023Z,98273.93
2019-01-19T14:42:09.493Z,98269.96
2019-01-19T14:45:01.961Z,98264.86
2019-01-19T14:47:52.514Z,98263.75
2019-01-19T14:50:44.984Z,98246.64
2019-01-19T14:53:35.590Z,98246.89
2019-01-19T14:56:26.143Z,98248.81
2019-01-19T14:58:58.733Z,98242.92
2019-01-19T15:01:49.295Z,98247.33
2019-01-19T15:04:39.949Z,98251.24
2019-01-19T15:07:32.418Z,98245.78
2019-01-19T15:10:05.014Z,98248.25
2019-01-19T15:12:57.473Z,98241.08
2019-01-19T15:15:48.036Z,98239.77
2019-01-19T15:18:40.520Z,98244.83
2019-01-19T15:21:32.972Z,98242.59
2019-01-19T15:24:23.573Z,98236.06
2019-01-19T15:27:15.989Z,98242.91
2019-01-19T15:30:08.466Z,98239.61
2019-01-19T15:33:00.987Z,98240.05
2019-01-19T15:35:53.445Z,98235.78
2019-01-19T15:38:44.066Z,98235.34
2019-01-19T15:41:36.515Z,98235.38
2019-01-19T15:44:27.208Z,98235.50
2019-01-19T15:47:17.730Z,98224.91
2019-01-19T15:50:08.315Z,98233.83
2019-01-19T15:53:00.779Z,98225.86
2019-01-19T15:55:51.346Z,98224.98
2019-01-19T15:58:43.823Z,98228.52
2019-01-19T16:01:36.314Z,98228.41
2019-01-19T16:04:28.799Z,98232.34
2019-01-19T16:07:19.460Z,98229.89
2019-01-19T16:10:11.942Z,98223.11
2019-01-19T16:13:04.385Z,98222.12
2019-01-19T16:15:54.976Z,98227.45
2019-01-19T16:18:47.417Z,98226.77
2019-01-19T16:21:37.980Z,98224.75
2019-01-19T16:24:28.526Z,98222.67
2019-01-19T16:27:19.083Z,98225.70
2019-01-19T16:30:11.560Z,98226.77
2019-01-19T16:33:02.271Z,98221.27
2019-01-19T16:35:52.853Z,98224.26
2019-01-19T16:38:43.404Z,98223.06
2019-01-19T16:41:36.288Z,98217.41
2019-01-19T16:44:28.780Z,98222.55
2019-01-19T16:47:19.355Z,98218.28
2019-01-19T16:50:09.916Z,98211.98
2019-01-19T16:53:02.384Z,98216.72
2019-01-19T16:55:54.869Z,98212.14
2019-01-19T16:58:45.466Z,98212.97
2019-01-19T17:01:37.918Z,98210.13
2019-01-19T17:04:30.373Z,98205.51
2019-01-19T17:07:22.833Z,98203.87
2019-01-19T17:10:15.326Z,98206.05
2019-01-19T17:13:07.839Z,98206.05
2019-01-19T17:16:00.297Z,98208.23
2019-01-19T17:18:52.775Z,98208.67
2019-01-19T17:21:43.317Z,98203.67
2019-01-19T17:24:35.977Z,98208.39
2019-01-19T17:27:26.540Z,98207.59
2019-01-19T17:30:17.143Z,98206.81
2019-01-19T17:33:07.705Z,98204.80
2019-01-19T17:36:00.177Z,98205.32
2019-01-19T17:38:50.757Z,98200.31
2019-01-19T17:41:41.312Z,98205.84
2019-01-19T17:44:31.903Z,98201.67
2019-01-19T17:47:24.368Z,98201.67
2019-01-19T17:49:56.978Z,98199.59
2019-01-19T17:52:49.456Z,98203.84
2019-01-19T17:55:40.178Z,98195.02
2019-01-19T17:58:30.759Z,98197.16
2019-01-19T18:01:21.579Z,98205.17
2019-01-19T18:04:14.172Z,98201.38
2019-01-19T18:07:06.633Z,98198.91
2019-01-19T18:09:57.224Z,98202.81
2019-01-19T18:12:47.789Z,98202.81
2019-01-19T18:15:38.371Z,98195.61
2019-01-19T18:18:30.880Z,98190.55
2019-01-19T18:21:21.468Z,98190.55
2019-01-19T18:24:13.951Z,98193.95
2019-01-19T18:27:04.559Z,98193.98
2019-01-19T18:29:55.135Z,98194.00
2019-01-19T18:32:47.625Z,98199.14
2019-01-19T18:35:40.129Z,98193.23
2019-01-19T18:38:30.716Z,98194.10
2019-01-19T18:41:21.281Z,98191.53
2019-01-19T18:44:11.871Z,98191.53
2019-01-19T18:47:02.484Z,98195.78
2019-01-19T18:49:54.984Z,98191.60
2019-01-19T18:52:45.604Z,98179.36
2019-01-19T18:55:38.053Z,98179.36
2019-01-19T18:58:28.659Z,98181.08
2019-01-19T19:00:52.455Z,98171.77
2019-01-19T19:03:44.985Z,98171.77
2019-01-19T19:06:37.429Z,98181.48
2019-01-19T19:09:10.047Z,98175.19
2019-01-19T19:12:00.612Z,98173.14
2019-01-19T19:14:53.131Z,98169.30
2019-01-19T19:17:45.605Z,98171.45
2019-01-19T19:20:38.103Z,98171.05
2019-01-19T19:23:30.569Z,98169.36
2019-01-19T19:26:23.064Z,98160.09
2019-01-19T19:29:15.509Z,98163.90
2019-01-19T19:32:06.087Z,98171.90
2019-01-19T19:34:58.577Z,98169.39
2019-01-19T19:37:49.140Z,98173.66
2019-01-19T19:40:39.692Z,98173.69
2019-01-19T19:43:32.153Z,98172.05
2019-01-19T19:46:22.745Z,98164.07
2019-01-19T19:49:15.221Z,98171.64
2019-01-19T19:52:05.794Z,98173.73
2019-01-19T19:54:16.632Z,98172.50
2019-01-19T19:56:27.280Z,98172.50
2019-01-19T19:58:38.138Z,98175.52
2019-01-19T20:03:11.162Z,98169.23
2019-01-19T20:05:22.095Z,98167.55
2019-01-19T20:07:33.019Z,98176.89
2019-01-19T20:09:43.943Z,98177.75
2019-01-19T20:14:17.186Z,98173.11
2019-01-19T20:16:27.995Z,98175.17
2019-01-19T20:18:38.827Z,98171.35
2019-01-19T20:20:49.837Z,98170.55
2019-01-19T20:23:20.560Z,98175.34
2019-01-19T20:25:31.374Z,98175.34
2019-01-19T20:27:42.197Z,98171.56
2019-01-19T20:29:53.015Z,98176.20
2019-01-19T20:32:03.951Z,98178.31
2019-01-19T20:34:14.771Z,98175.38
2019-01-19T20:36:25.585Z,98177.05
2019-01-19T20:38:36.536Z,98171.13
2019-01-19T20:40:47.378Z,98177.89
2019-01-19T20:42:58.240Z,98179.99
2019-01-19T20:45:28.923Z,98178.30
2019-01-19T20:47:39.838Z,98181.25
2019-01-19T20:49:50.688Z,98180.45
2019-01-19T20:52:01.625Z,98182.14
2019-01-19T20:54:12.467Z,98182.98
2019-01-19T20:56:23.282Z,98175.80
2019-01-19T20:58:34.231Z,98179.59
2019-01-19T21:00:45.064Z,98174.97
2019-01-19T21:02:55.986Z,98174.55
2019-01-19T21:05:06.921Z,98174.16
2019-01-19T21:07:17.741Z,98180.02
2019-01-19T21:09:28.698Z,98174.84
2019-01-19T21:11:39.507Z,98178.66
2019-01-19T21:13:50.323Z,98177.45
2019-01-19T21:16:01.370Z,98171.58
2019-01-19T21:18:12.192Z,98171.95
2019-01-19T21:20:23.030Z,98172.01
2019-01-19T21:22:33.853Z,98171.16
2019-01-19T21:24:44.671Z,98166.49
2019-01-19T21:26:55.479Z,98168.23
2019-01-19T21:29:06.301Z,98165.71
2019-01-19T21:31:17.155Z,98162.76
2019-01-19T21:33:27.987Z,98165.70
2019-01-19T21:35:38.965Z,98168.69
2019-01-19T21:37:49.759Z,98166.55
2019-01-19T21:40:00.616Z,98166.55
2019-01-19T21:42:11.420Z,98159.80
2019-01-19T21:44:22.254Z,98165.70
2019-01-19T21:46:33.189Z,98157.66
2019-01-19T21:48:44.031Z,98157.67
2019-01-19T21:50:54.948Z,98154.29
2019-01-19T21:53:05.777Z,98158.58
2019-01-19T21:55:16.609Z,98153.06
2019-01-19T21:57:27.464Z,98156.03
2019-01-19T21:59:38.308Z,98151.81
2019-01-19T22:01:49.143Z,98155.20
2019-01-19T22:03:59.963Z,98155.62
2019-01-19T22:06:10.841Z,98148.42
2019-01-19T22:08:21.653Z,98155.59
2019-01-19T22:10:32.551Z,98143.79
2019-01-19T22:12:43.399Z,98149.72
2019-01-19T22:14:54.203Z,98145.05
2019-01-19T22:17:05.131Z,98143.38
2019-01-19T22:19:15.935Z,98145.89
2019-01-19T22:21:26.877Z,98153.94
2019-01-19T22:23:37.719Z,98147.61
2019-01-19T22:25:48.519Z,98150.16
2019-01-19T22:27:59.353Z,98144.24
2019-01-19T22:30:51.832Z,98144.27
2019-01-19T22:36:03.400Z,98152.72
2019-01-19T22:38:14.365Z,98153.17
2019-01-19T22:40:25.336Z,98153.17
2019-01-19T22:42:36.162Z,98148.08
2019-01-19T22:44:47.004Z,98150.20
2019-01-19T22:46:57.932Z,98147.23
2019-01-19T22:49:08.848Z,98148.51
2019-01-19T22:51:19.711Z,98140.87
2019-01-19T22:53:30.529Z,98143.41
2019-01-19T22:55:41.358Z,98139.20
2019-01-19T22:57:52.159Z,98140.91
2019-01-19T23:01:02.589Z,98142.59
2019-01-19T23:03:33.532Z,98135.84
2019-01-19T23:05:44.348Z,98135.84
2019-01-19T23:07:55.149Z,98139.23
2019-01-19T23:10:47.631Z,98134.16
2019-01-19T23:12:58.476Z,98128.26
2019-01-19T23:17:31.389Z,98132.11
2019-01-19T23:19:42.202Z,98135.08
2019-01-19T23:22:14.807Z,98134.67
2019-01-19T23:24:25.677Z,98130.02
2019-01-19T23:29:08.929Z,98131.73
2019-01-19T23:31:19.771Z,98133.81
2019-01-19T23:33:30.581Z,98127.08
2019-01-19T23:35:41.404Z,98130.02
2019-01-19T23:37:52.225Z,98135.08
2019-01-19T23:40:44.690Z,98138.47
2019-01-19T23:42:55.480Z,98133.38
2019-01-19T23:45:28.104Z,98126.20
2019-01-19T23:47:39.016Z,98128.30
2019-01-19T23:49:49.871Z,98133.36
2019-01-19T23:52:00.740Z,98126.60
2019-01-19T23:54:11.542Z,98127.45
2019-01-19T23:56:22.382Z,98128.73
2019-01-19T23:58:33.232Z,98118.59
